Bookmark and Share
Track history (hours):
 

Houwa Maru

Last reported at 2014-Apr-16 07:11 UTC. Time now 2014-Apr-16 07:47 UTC.
Position N 34°35' E 135°26'.

Length 76 m.

Type: Ship. MMSI: 431500378.

NotesDate/timePositionNaut miles runAvg speedWind from/ knotsBaromVisibWave heightAir tempDewpointWater temp
2014-Apr-16 07:11N 34°35' E 135°26'0 0.1
2014-Apr-16 06:24N 34°35' E 135°26'0 0.0
2014-Apr-16 04:12N 34°35' E 135°26'0 0.0
2014-Apr-16 03:18N 34°35' E 135°26'0 0.3
2014-Apr-16 02:29N 34°35' E 135°25'1 0.1
2014-Apr-15 15:25N 34°36' E 135°25'8 9.4
2014-Apr-15 14:32N 34°31' E 135°16'221 7.1
2014-Apr-14 07:33N 35°08' E 139°42'10 9.5
2014-Apr-14 06:33N 35°17' E 139°44'10 9.3
2014-Apr-14 05:30N 35°27' E 139°43'1 0.1
2014-Apr-13 20:21N 35°28' E 139°43'0 0.0
2014-Apr-13 16:21N 35°28' E 139°43'0 0.1
2014-Apr-13 15:33N 35°28' E 139°43'0 0.0
2014-Apr-13 09:15N 35°28' E 139°43'0 0.0
2014-Apr-13 08:27N 35°28' E 139°43'0 0.0
2014-Apr-13 06:12N 35°28' E 139°43'0 0.0
2014-Apr-13 05:15N 35°28' E 139°43'1 0.7
2014-Apr-13 03:31N 35°27' E 139°42'0 0.0
2014-Apr-13 02:28N 35°27' E 139°42'0 0.0
2014-Apr-13 01:31N 35°27' E 139°42'0 0.0
2014-Apr-13 00:28N 35°27' E 139°42'0 0.0
2014-Apr-12 23:26N 35°27' E 139°42'0 0.0
2014-Apr-12 22:26N 35°27' E 139°42'0 0.0
2014-Apr-12 21:32N 35°27' E 139°42'0 0.0
2014-Apr-12 20:33N 35°27' E 139°42'0 0.0
2014-Apr-12 19:24N 35°27' E 139°42'0 0.0
2014-Apr-12 18:30N 35°27' E 139°42'0 0.0
2014-Apr-12 16:12N 35°27' E 139°42'0 0.0
2014-Apr-12 14:06N 35°27' E 139°42'0 0.0
2014-Apr-12 13:24N 35°27' E 139°42'0 0.0
2014-Apr-12 12:33N 35°27' E 139°42'0 0.1
2014-Apr-12 11:33N 35°27' E 139°42'0 0.0
2014-Apr-12 10:30N 35°27' E 139°42'0 0.0
2014-Apr-12 09:33N 35°27' E 139°42'0 0.0
2014-Apr-12 08:21N 35°27' E 139°42'0 0.0
2014-Apr-12 07:24N 35°27' E 139°42'0 0.1
2014-Apr-12 06:27N 35°27' E 139°42'0 0.1
2014-Apr-12 05:33N 35°27' E 139°42'0 0.0
2014-Apr-12 04:18N 35°27' E 139°42'0 0.0
2014-Apr-12 03:33N 35°27' E 139°42'0 0.0
2014-Apr-12 02:33N 35°27' E 139°42'0 0.0
2014-Apr-12 01:30N 35°27' E 139°42'0 0.1
2014-Apr-12 00:33N 35°27' E 139°42'0 0.0
2014-Apr-11 23:24N 35°27' E 139°42'0 0.0
2014-Apr-11 22:12N 35°27' E 139°42'0 0.1
2014-Apr-11 21:27N 35°27' E 139°42'0 0.0
2014-Apr-11 20:30N 35°27' E 139°42'0 0.0
2014-Apr-11 19:33N 35°27' E 139°42'0 0.0
2014-Apr-11 18:30N 35°27' E 139°42'0 0.0
2014-Apr-11 17:33N 35°27' E 139°42'0 0.0
2014-Apr-11 16:33N 35°27' E 139°42'0 0.0
2014-Apr-11 15:18N 35°27' E 139°42'0 0.6
2014-Apr-11 14:33N 35°27' E 139°43'1 0.2
2014-Apr-11 09:12N 35°28' E 139°43'0 0.0
2014-Apr-11 08:27N 35°28' E 139°43'0 0.3
2014-Apr-11 07:32N 35°28' E 139°42'0 0.1
2014-Apr-11 06:33N 35°28' E 139°42'1 1.1
2014-Apr-11 05:27N 35°27' E 139°43'0 0.0
2014-Apr-11 04:33N 35°27' E 139°43'0 0.0
2014-Apr-11 03:33N 35°27' E 139°43'0 0.0
2014-Apr-11 00:27N 35°27' E 139°43'0 0.1
2014-Apr-10 23:27N 35°27' E 139°43'0 0.0
2014-Apr-10 22:33N 35°27' E 139°43'0 0.0
2014-Apr-10 21:33N 35°27' E 139°43'1 1.0
2014-Apr-10 20:28N 35°28' E 139°43'0 0.0
2014-Apr-10 19:31N 35°28' E 139°43'0 0.0
2014-Apr-10 18:22N 35°28' E 139°43'0 0.0
2014-Apr-10 17:28N 35°28' E 139°43'0 0.0
2014-Apr-10 16:25N 35°28' E 139°43'0 0.0
2014-Apr-10 15:25N 35°28' E 139°43'0 0.0
2014-Apr-10 14:31N 35°28' E 139°43'0 0.1
2014-Apr-10 12:16N 35°28' E 139°42'1 0.3
2014-Apr-10 07:29N 35°27' E 139°42'0 0.0
2014-Apr-10 06:23N 35°27' E 139°42'0 0.0
2014-Apr-10 05:23N 35°27' E 139°42'0 0.1
2014-Apr-10 04:32N 35°27' E 139°42'0 0.0
2014-Apr-10 03:32N 35°27' E 139°42'0 0.0
2014-Apr-10 02:29N 35°27' E 139°42'0 0.4
2014-Apr-10 01:24N 35°27' E 139°43'910.2
2014-Apr-10 00:33N 35°18' E 139°45'10 9.9
2014-Apr-09 23:32N 35°08' E 139°46'  

Dump ship's entire track history

sailing weather and tide predictions

Houwa Maru — JL6394 — position and weather